createdAt,value
2017-08-16T00:00:31.814Z,10.17
2017-08-16T00:02:59.374Z,9.50
2017-08-16T00:05:26.910Z,8.90
2017-08-16T00:07:54.462Z,9.67
2017-08-16T00:10:22.488Z,9.37
2017-08-16T00:12:50.057Z,10.40
2017-08-16T00:15:17.574Z,9.57
2017-08-16T00:17:45.153Z,9.30
2017-08-16T00:20:12.748Z,10.90
2017-08-16T00:22:40.516Z,9.67
2017-08-16T00:25:08.159Z,9.63
2017-08-16T00:27:35.706Z,9.53
2017-08-16T00:30:03.262Z,11.07
2017-08-16T00:32:30.927Z,8.83
2017-08-16T00:34:59.315Z,9.13
2017-08-16T00:37:26.887Z,9.87
2017-08-16T00:39:54.547Z,8.93
2017-08-16T00:42:22.073Z,8.60
2017-08-16T00:44:49.646Z,9.43
2017-08-16T00:47:17.204Z,9.60
2017-08-16T00:49:44.729Z,9.73
2017-08-16T00:52:12.431Z,10.30
2017-08-16T00:54:40.020Z,9.50
2017-08-16T00:57:07.660Z,9.50
2017-08-16T00:59:35.329Z,9.70
2017-08-16T01:02:02.897Z,8.70
2017-08-16T01:04:30.536Z,10.40
2017-08-16T01:06:58.229Z,9.20
2017-08-16T01:09:25.837Z,10.17
2017-08-16T01:11:53.907Z,8.70
2017-08-16T01:14:21.507Z,9.43
2017-08-16T01:16:49.278Z,9.47
2017-08-16T01:19:16.891Z,9.83
2017-08-16T01:21:44.433Z,10.00
2017-08-16T01:24:12.012Z,9.77
2017-08-16T01:26:39.605Z,9.60
2017-08-16T01:29:07.204Z,10.00
2017-08-16T01:31:35.088Z,8.20
2017-08-16T01:34:02.657Z,8.90
2017-08-16T01:36:30.252Z,9.27
2017-08-16T01:38:58.139Z,10.43
2017-08-16T01:41:25.673Z,9.80
2017-08-16T01:43:53.419Z,9.93
2017-08-16T01:46:21.084Z,9.70
2017-08-16T01:48:48.668Z,8.80
2017-08-16T01:51:16.218Z,8.33
2017-08-16T01:53:43.728Z,8.30
2017-08-16T01:56:11.322Z,8.20
2017-08-16T01:58:38.817Z,9.90
2017-08-16T02:01:06.369Z,8.87
2017-08-16T02:03:33.913Z,7.97
2017-08-16T02:06:01.409Z,8.33
2017-08-16T02:08:28.970Z,8.43
2017-08-16T02:10:56.502Z,9.33
2017-08-16T02:13:23.997Z,7.93
2017-08-16T02:15:51.529Z,7.77
2017-08-16T02:18:19.065Z,8.70
2017-08-16T02:20:46.586Z,8.20
2017-08-16T02:23:14.086Z,8.50
2017-08-16T02:25:41.629Z,8.17
2017-08-16T02:28:09.126Z,8.20
2017-08-16T02:30:36.676Z,8.20
2017-08-16T02:33:04.174Z,8.47
2017-08-16T02:35:31.710Z,7.07
2017-08-16T02:37:59.250Z,8.30
2017-08-16T02:40:26.749Z,8.93
2017-08-16T02:42:54.365Z,8.20
2017-08-16T02:45:21.869Z,7.90
2017-08-16T02:47:49.380Z,7.70
2017-08-16T02:50:16.962Z,7.70
2017-08-16T02:52:44.650Z,8.40
2017-08-16T02:55:12.197Z,8.90
2017-08-16T02:57:39.694Z,7.97
2017-08-16T03:00:07.305Z,7.97
2017-08-16T03:02:34.859Z,8.43
2017-08-16T03:05:02.361Z,7.27
2017-08-16T03:07:29.882Z,8.50
2017-08-16T03:09:57.440Z,7.70
2017-08-16T03:12:24.932Z,8.30
2017-08-16T03:14:52.436Z,8.57
2017-08-16T03:17:19.968Z,7.57
2017-08-16T03:19:47.507Z,8.60
2017-08-16T03:22:15.013Z,7.03
2017-08-16T03:24:42.558Z,9.07
2017-08-16T03:27:10.081Z,7.27
2017-08-16T03:29:37.616Z,7.07
2017-08-16T03:32:05.121Z,8.20
2017-08-16T03:34:32.660Z,7.33
2017-08-16T03:37:00.160Z,7.70
2017-08-16T03:39:27.669Z,7.67
2017-08-16T03:41:55.209Z,7.67
2017-08-16T03:44:22.768Z,7.77
2017-08-16T03:46:50.341Z,7.77
2017-08-16T03:49:17.855Z,9.23
2017-08-16T03:51:45.359Z,7.50
2017-08-16T03:54:12.896Z,8.37
2017-08-16T03:56:40.397Z,7.67
2017-08-16T03:59:07.949Z,8.00
2017-08-16T04:01:35.477Z,6.93
2017-08-16T04:04:03.269Z,7.80
2017-08-16T04:06:30.905Z,7.60
2017-08-16T04:08:58.852Z,8.10
2017-08-16T04:11:26.426Z,8.00
2017-08-16T04:13:54.053Z,8.70
2017-08-16T04:16:21.632Z,9.37
2017-08-16T04:18:49.171Z,10.00
2017-08-16T04:21:16.695Z,10.27
2017-08-16T04:23:44.268Z,9.00
2017-08-16T04:26:11.799Z,11.27
2017-08-16T04:28:39.323Z,10.73
2017-08-16T04:31:06.886Z,13.13
2017-08-16T04:33:34.388Z,9.97
2017-08-16T04:36:01.927Z,11.80
2017-08-16T04:38:29.490Z,10.60
2017-08-16T04:40:56.997Z,9.73
2017-08-16T04:43:24.584Z,9.50
2017-08-16T04:45:52.139Z,10.13
2017-08-16T04:48:19.717Z,9.00
2017-08-16T04:50:47.235Z,9.50
2017-08-16T04:53:14.798Z,8.23
2017-08-16T04:55:42.313Z,8.20
2017-08-16T04:58:09.829Z,7.57
2017-08-16T05:00:37.370Z,8.80
2017-08-16T05:03:04.873Z,8.90
2017-08-16T05:05:32.451Z,7.87
2017-08-16T05:07:59.946Z,8.20
2017-08-16T05:10:27.613Z,8.70
2017-08-16T05:12:55.255Z,8.30
2017-08-16T05:15:22.894Z,8.23
2017-08-16T05:17:50.493Z,8.20
2017-08-16T05:20:18.069Z,8.13
2017-08-16T05:22:45.605Z,8.40
2017-08-16T05:25:13.182Z,8.50
2017-08-16T05:27:40.749Z,8.70
2017-08-16T05:30:08.293Z,7.90
2017-08-16T05:32:35.823Z,7.93
2017-08-16T05:35:03.512Z,7.47
2017-08-16T05:37:31.309Z,7.57
2017-08-16T05:39:58.912Z,8.37
2017-08-16T05:42:26.489Z,7.10
2017-08-16T05:44:54.218Z,7.93
2017-08-16T05:47:21.801Z,9.43
2017-08-16T05:49:49.329Z,7.63
2017-08-16T05:52:16.837Z,7.47
2017-08-16T05:54:44.391Z,9.27
2017-08-16T05:57:11.965Z,7.43
2017-08-16T05:59:39.511Z,8.27
2017-08-16T06:02:07.088Z,8.43
2017-08-16T06:04:34.705Z,7.30
2017-08-16T06:07:02.303Z,9.10
2017-08-16T06:09:29.817Z,8.77
2017-08-16T06:11:57.445Z,8.70
2017-08-16T06:14:25.053Z,8.30
2017-08-16T06:16:52.738Z,8.33
2017-08-16T06:19:20.898Z,9.23
2017-08-16T06:21:48.446Z,8.17
2017-08-16T06:24:16.208Z,8.73
2017-08-16T06:26:43.793Z,8.73
2017-08-16T06:29:11.667Z,9.27
2017-08-16T06:31:39.241Z,7.80
2017-08-16T06:34:06.881Z,9.33
2017-08-16T06:36:34.540Z,10.53
2017-08-16T06:39:02.206Z,9.13
2017-08-16T06:41:30.019Z,8.67
2017-08-16T06:43:57.777Z,8.50
2017-08-16T06:46:25.830Z,9.53
2017-08-16T06:48:53.453Z,9.00
2017-08-16T06:51:21.025Z,9.00
2017-08-16T06:53:48.996Z,8.33
2017-08-16T06:56:16.660Z,8.43
2017-08-16T06:58:44.447Z,8.53
2017-08-16T07:01:12.599Z,9.37
2017-08-16T07:03:40.460Z,8.77
2017-08-16T07:06:08.002Z,8.00
2017-08-16T07:08:35.700Z,8.97
2017-08-16T07:11:04.869Z,9.37
2017-08-16T07:13:32.782Z,9.13
2017-08-16T07:16:01.639Z,8.37
2017-08-16T07:18:29.274Z,8.20
2017-08-16T07:20:56.880Z,9.07
2017-08-16T07:23:24.449Z,8.77
2017-08-16T07:25:52.112Z,8.20
2017-08-16T07:28:19.657Z,8.10
2017-08-16T07:30:47.341Z,9.10
2017-08-16T07:33:14.988Z,9.50
2017-08-16T07:35:42.516Z,8.40
2017-08-16T07:38:10.247Z,9.37
2017-08-16T07:40:37.970Z,8.40
2017-08-16T07:43:05.677Z,7.77
2017-08-16T07:45:33.407Z,8.63
2017-08-16T07:48:01.080Z,9.70
2017-08-16T07:50:28.750Z,8.33
2017-08-16T07:52:56.535Z,8.97
2017-08-16T07:55:24.165Z,7.53
2017-08-16T07:57:51.934Z,8.20
2017-08-16T08:00:19.533Z,8.07
2017-08-16T08:02:47.248Z,8.23
2017-08-16T08:05:14.928Z,8.30
2017-08-16T08:07:42.677Z,8.57
2017-08-16T08:10:30.225Z,9.23
2017-08-16T08:12:59.745Z,8.77
2017-08-16T08:15:28.207Z,8.60
2017-08-16T08:18:10.749Z,8.40
2017-08-16T08:20:42.778Z,8.80
2017-08-16T08:23:11.986Z,8.67
2017-08-16T08:25:45.506Z,8.63
2017-08-16T08:31:33.982Z,8.47
2017-08-16T08:37:01.798Z,9.27
2017-08-16T08:39:39.553Z,10.13
2017-08-16T08:42:07.609Z,9.77
2017-08-16T08:44:51.059Z,9.77
2017-08-16T08:47:23.708Z,8.80
2017-08-16T08:53:01.203Z,9.60
2017-08-16T08:55:42.634Z,9.23
2017-08-16T08:58:16.923Z,10.20
2017-08-16T09:27:50.209Z,9.43
2017-08-16T09:30:51.682Z,8.40
2017-08-16T09:33:30.799Z,9.20
2017-08-16T09:36:03.923Z,10.30
2017-08-16T09:38:31.825Z,10.30
2017-08-16T09:41:00.793Z,10.30
2017-08-16T09:43:31.084Z,11.93
2017-08-16T09:45:59.151Z,9.30
2017-08-16T09:48:33.224Z,10.10
2017-08-16T09:51:01.643Z,9.03
2017-08-16T09:53:30.876Z,9.73
2017-08-16T09:56:06.087Z,10.00
2017-08-16T09:58:35.180Z,9.97
2017-08-16T10:01:05.692Z,9.60
2017-08-16T10:03:33.433Z,10.17
2017-08-16T10:08:46.437Z,9.93
2017-08-16T10:17:52.061Z,9.70
2017-08-16T10:24:17.125Z,8.93
2017-08-16T10:26:47.957Z,8.30
2017-08-16T10:29:26.428Z,9.57
2017-08-16T10:32:09.880Z,10.37
2017-08-16T10:48:39.718Z,9.30
2017-08-16T10:51:10.707Z,9.67
2017-08-16T10:53:56.603Z,9.40
2017-08-16T10:56:27.448Z,8.53
2017-08-16T10:59:00.229Z,8.70
2017-08-16T11:01:30.137Z,8.77
2017-08-16T11:04:01.068Z,9.13
2017-08-16T11:06:37.850Z,9.20
2017-08-16T11:09:05.954Z,9.23
2017-08-16T11:11:41.854Z,8.60
2017-08-16T11:14:10.618Z,8.63
2017-08-16T11:26:58.539Z,8.83
2017-08-16T11:29:30.181Z,8.30
2017-08-16T11:32:02.129Z,8.63
2017-08-16T11:34:38.912Z,9.30
2017-08-16T11:43:11.619Z,9.73
2017-08-16T12:04:54.761Z,8.40
2017-08-16T12:11:14.201Z,6.40
2017-08-16T12:16:27.550Z,7.97
2017-08-16T12:18:57.001Z,7.40
2017-08-16T12:21:24.574Z,6.93
2017-08-16T12:23:55.807Z,6.67
2017-08-16T12:26:40.327Z,7.40
2017-08-16T12:29:13.855Z,7.80
2017-08-16T12:31:43.331Z,6.90
2017-08-16T12:34:11.170Z,6.33
2017-08-16T12:36:44.197Z,8.07
2017-08-16T12:52:44.675Z,6.70
2017-08-16T12:55:46.901Z,7.37
2017-08-16T12:58:19.034Z,6.77
2017-08-16T13:04:40.078Z,6.87
2017-08-16T13:07:11.025Z,7.40
2017-08-16T13:09:43.433Z,6.87
2017-08-16T13:12:22.070Z,6.80
2017-08-16T13:14:51.005Z,7.33
2017-08-16T13:17:25.369Z,6.83
2017-08-16T13:19:53.224Z,7.43
2017-08-16T13:22:45.519Z,7.37
2017-08-16T13:29:02.832Z,6.27
2017-08-16T13:31:36.124Z,6.27
2017-08-16T13:34:05.603Z,7.27
2017-08-16T13:36:34.263Z,6.03
2017-08-16T13:57:13.759Z,6.63
2017-08-16T13:59:41.374Z,7.10
2017-08-16T14:02:08.937Z,6.27
2017-08-16T14:04:36.843Z,6.10
2017-08-16T14:07:06.349Z,5.80
2017-08-16T14:09:38.178Z,6.00
2017-08-16T14:12:07.100Z,6.63
2017-08-16T14:14:40.727Z,6.47
2017-08-16T14:37:44.391Z,5.90
2017-08-16T14:40:45.315Z,5.43
2017-08-16T14:43:42.828Z,5.33
2017-08-16T15:01:29.990Z,5.97
2017-08-16T15:03:57.704Z,6.00
2017-08-16T15:06:25.580Z,6.20
2017-08-16T15:08:53.540Z,5.73
2017-08-16T15:11:28.486Z,5.07
2017-08-16T15:13:56.422Z,6.00
2017-08-16T15:16:27.849Z,5.67
2017-08-16T15:19:01.738Z,5.73
2017-08-16T15:21:29.977Z,5.47
2017-08-16T15:23:58.361Z,5.03
2017-08-16T15:26:26.168Z,5.80
2017-08-16T15:28:53.877Z,6.47
2017-08-16T15:31:21.446Z,6.50
2017-08-16T15:33:49.009Z,5.90
2017-08-16T15:36:16.661Z,6.00
2017-08-16T15:38:45.912Z,5.80
2017-08-16T15:41:13.855Z,5.40
2017-08-16T15:43:41.432Z,5.60
2017-08-16T15:46:09.128Z,5.90
2017-08-16T15:48:36.895Z,5.40
2017-08-16T15:51:04.604Z,6.20
2017-08-16T15:53:32.258Z,5.00
2017-08-16T15:55:59.857Z,6.20
2017-08-16T15:58:27.409Z,5.20
2017-08-16T16:00:55.089Z,5.70
2017-08-16T16:03:22.626Z,5.40
2017-08-16T16:05:51.305Z,6.23
2017-08-16T16:08:18.852Z,6.30
2017-08-16T16:10:46.400Z,5.80
2017-08-16T16:13:13.987Z,5.50
2017-08-16T16:15:41.718Z,6.40
2017-08-16T16:18:09.450Z,7.10
2017-08-16T16:20:39.105Z,7.40
2017-08-16T16:23:06.637Z,7.10
2017-08-16T16:25:34.192Z,7.23
2017-08-16T16:28:01.939Z,7.87
2017-08-16T16:30:29.458Z,8.33
2017-08-16T16:32:57.398Z,8.17
2017-08-16T16:35:24.992Z,8.33
2017-08-16T16:37:52.552Z,7.60
2017-08-16T16:40:20.099Z,7.70
2017-08-16T16:42:48.318Z,7.77
2017-08-16T16:45:15.841Z,7.40
2017-08-16T16:47:43.334Z,7.53
2017-08-16T16:50:10.950Z,8.20
2017-08-16T16:52:38.454Z,7.87
2017-08-16T16:55:06.093Z,7.47
2017-08-16T16:57:33.662Z,6.80
2017-08-16T17:00:01.387Z,7.87
2017-08-16T17:02:29.040Z,7.03
2017-08-16T17:04:56.836Z,6.80
2017-08-16T17:07:24.448Z,7.37
2017-08-16T17:09:51.952Z,8.10
2017-08-16T17:12:19.498Z,7.87
2017-08-16T17:14:47.001Z,6.97
2017-08-16T17:17:14.541Z,7.80
2017-08-16T17:19:42.078Z,6.77
2017-08-16T17:22:09.636Z,9.20
2017-08-16T17:24:37.319Z,7.57
2017-08-16T17:27:04.834Z,7.97
2017-08-16T17:29:32.541Z,8.67
2017-08-16T17:32:00.054Z,8.80
2017-08-16T17:34:27.618Z,7.90
2017-08-16T17:36:55.310Z,7.03
2017-08-16T17:39:22.824Z,7.97
2017-08-16T17:41:50.394Z,7.27
2017-08-16T17:44:17.889Z,7.70
2017-08-16T17:46:45.550Z,7.03
2017-08-16T17:49:13.053Z,7.03
2017-08-16T17:51:41.365Z,6.83
2017-08-16T17:54:08.903Z,7.87
2017-08-16T17:56:38.686Z,7.73
2017-08-16T17:59:06.927Z,7.80
2017-08-16T18:01:34.488Z,8.73
2017-08-16T18:04:02.045Z,7.67
2017-08-16T18:06:30.490Z,7.40
2017-08-16T18:08:58.013Z,8.20
2017-08-16T18:11:25.591Z,8.77
2017-08-16T18:13:53.209Z,8.20
2017-08-16T18:16:20.718Z,8.67
2017-08-16T18:18:48.253Z,9.27
2017-08-16T18:21:15.790Z,8.60
2017-08-16T18:23:43.426Z,7.63
2017-08-16T18:26:10.983Z,9.67
2017-08-16T18:28:39.011Z,9.53
2017-08-16T18:31:06.638Z,9.10
2017-08-16T18:33:34.224Z,8.00
2017-08-16T18:36:01.950Z,8.27
2017-08-16T18:38:29.522Z,9.70
2017-08-16T18:40:57.292Z,7.40
2017-08-16T18:43:24.949Z,8.70
2017-08-16T18:45:52.554Z,8.10
2017-08-16T18:48:21.086Z,9.30
2017-08-16T18:50:48.687Z,7.50
2017-08-16T18:53:16.244Z,7.20
2017-08-16T18:55:43.754Z,7.60
2017-08-16T18:58:11.606Z,6.90
2017-08-16T19:00:39.230Z,7.03
2017-08-16T19:03:06.869Z,7.60
2017-08-16T19:05:34.407Z,8.37
2017-08-16T19:08:01.973Z,6.70
2017-08-16T19:10:29.477Z,7.80
2017-08-16T19:12:57.061Z,7.07
2017-08-16T19:15:24.641Z,7.40
2017-08-16T19:17:52.152Z,7.83
2017-08-16T19:20:19.664Z,8.00
2017-08-16T19:22:47.219Z,7.57
2017-08-16T19:25:14.718Z,7.50
2017-08-16T19:27:42.214Z,7.60
2017-08-16T19:30:09.755Z,7.43
2017-08-16T19:32:37.254Z,7.80
2017-08-16T19:35:04.879Z,7.50
2017-08-16T19:37:32.389Z,6.63
2017-08-16T19:39:59.895Z,7.53
2017-08-16T19:42:27.478Z,7.73
2017-08-16T19:44:54.988Z,8.27
2017-08-16T19:47:22.562Z,8.13
2017-08-16T19:49:50.097Z,7.70
2017-08-16T19:52:17.657Z,7.53
2017-08-16T19:54:45.189Z,7.77
2017-08-16T19:57:12.729Z,7.33
2017-08-16T19:59:40.227Z,8.20
2017-08-16T20:02:07.821Z,8.27
2017-08-16T20:04:35.361Z,7.77
2017-08-16T20:07:02.861Z,6.83
2017-08-16T20:09:30.405Z,7.40
2017-08-16T20:11:57.920Z,7.90
2017-08-16T20:14:25.514Z,8.00
2017-08-16T20:16:53.061Z,7.67
2017-08-16T20:19:20.570Z,6.93
2017-08-16T20:21:48.109Z,7.53
2017-08-16T20:24:15.654Z,7.97
2017-08-16T20:26:43.189Z,7.73
2017-08-16T20:29:10.777Z,6.57
2017-08-16T20:31:38.277Z,7.97
2017-08-16T20:34:05.814Z,7.60
2017-08-16T20:36:33.430Z,8.83
2017-08-16T20:39:00.938Z,7.57
2017-08-16T20:41:28.590Z,7.50
2017-08-16T20:43:56.464Z,8.27
2017-08-16T20:46:23.961Z,6.90
2017-08-16T20:48:51.496Z,8.13
2017-08-16T20:51:19.051Z,7.10
2017-08-16T20:53:46.574Z,7.10
2017-08-16T20:56:14.076Z,8.00
2017-08-16T20:58:41.638Z,7.27
2017-08-16T21:01:09.174Z,7.77
2017-08-16T21:03:36.734Z,7.80
2017-08-16T21:06:04.234Z,7.27
2017-08-16T21:08:31.793Z,7.70
2017-08-16T21:10:59.314Z,8.13
2017-08-16T21:13:26.883Z,7.50
2017-08-16T21:15:54.433Z,8.13
2017-08-16T21:18:21.965Z,7.30
2017-08-16T21:20:49.505Z,7.73
2017-08-16T21:23:17.017Z,8.60
2017-08-16T21:25:44.575Z,7.10
2017-08-16T21:28:12.073Z,8.30
2017-08-16T21:30:39.587Z,7.90
2017-08-16T21:33:07.141Z,7.40
2017-08-16T21:35:34.658Z,7.07
2017-08-16T21:38:02.178Z,7.97
2017-08-16T21:40:29.713Z,7.40
2017-08-16T21:42:57.259Z,9.07
2017-08-16T21:45:24.831Z,7.50
2017-08-16T21:47:52.327Z,8.10
2017-08-16T21:50:19.862Z,7.20
2017-08-16T21:52:47.358Z,7.60
2017-08-16T21:55:14.897Z,7.50
2017-08-16T21:57:42.415Z,7.90
2017-08-16T22:00:09.965Z,8.13
2017-08-16T22:02:37.468Z,6.70
2017-08-16T22:05:05.037Z,7.60
2017-08-16T22:07:32.536Z,7.20
2017-08-16T22:10:00.089Z,7.63
2017-08-16T22:12:27.656Z,7.60
2017-08-16T22:14:55.198Z,7.53
2017-08-16T22:17:22.759Z,8.57
2017-08-16T22:19:50.257Z,7.87
2017-08-16T22:22:22.790Z,7.90
2017-08-16T22:24:50.289Z,7.37
2017-08-16T22:27:17.829Z,7.13
2017-08-16T22:29:45.390Z,7.67
2017-08-16T22:32:12.898Z,8.40
2017-08-16T22:34:40.444Z,7.50
2017-08-16T22:37:07.957Z,7.80
2017-08-16T22:39:35.505Z,7.67
2017-08-16T22:42:03.061Z,7.57
2017-08-16T22:44:30.570Z,7.50
2017-08-16T22:46:58.172Z,6.37
2017-08-16T22:49:25.729Z,7.77
2017-08-16T22:51:53.266Z,7.90
2017-08-16T22:54:20.798Z,8.13
2017-08-16T22:56:48.348Z,8.23
2017-08-16T22:59:15.856Z,8.40
2017-08-16T23:01:43.409Z,7.30
2017-08-16T23:04:10.926Z,7.87
2017-08-16T23:06:38.461Z,7.30
2017-08-16T23:09:05.997Z,7.73
2017-08-16T23:11:33.656Z,5.90
2017-08-16T23:14:01.203Z,7.20
2017-08-16T23:16:28.739Z,7.93
2017-08-16T23:18:56.400Z,8.00
2017-08-16T23:21:23.907Z,7.53
2017-08-16T23:23:51.422Z,7.57
2017-08-16T23:26:18.954Z,6.40
2017-08-16T23:28:46.452Z,8.63
2017-08-16T23:31:14.002Z,7.50
2017-08-16T23:33:41.497Z,7.63
2017-08-16T23:36:09.040Z,7.50
2017-08-16T23:38:36.537Z,7.30
2017-08-16T23:41:04.138Z,7.80
2017-08-16T23:43:31.682Z,8.20
2017-08-16T23:45:59.244Z,7.63
2017-08-16T23:48:26.941Z,7.07
2017-08-16T23:50:54.453Z,7.37
2017-08-16T23:53:22.024Z,7.73
2017-08-16T23:55:49.574Z,7.43
2017-08-16T23:58:17.073Z,6.97
